Time;durP1;ratioP1;P1;durP2;ratioP2;P2;SDS_P1;SDS_P2;PMS_P1;PMS_P2;Temp;Humidity;BMP_temperature;BMP_pressure;BME280_temperature;BME280_humidity;BME280_pressure;Samples;Min_cycle;Max_cycle;Signal;HPM_P1;HPM_P2
2022/07/20 00:00:59;;;;;;;5.60;4.97;;;25.40;1.00;;;;;;5050649;28;20185;-59
2022/07/20 00:03:24;;;;;;;5.77;4.93;;;25.30;1.00;;;;;;5047276;28;20195;-58
2022/07/20 00:05:50;;;;;;;6.07;4.10;;;25.30;1.00;;;;;;5045831;28;20227;-59
2022/07/20 00:11:19;;;;;;;5.23;4.73;;;25.20;1.00;;;;;;5051434;28;20268;-58
2022/07/20 00:13:56;;;;;;;6.83;4.77;;;25.20;1.00;;;;;;5063997;28;20433;-59
2022/07/20 00:16:24;;;;;;;5.60;5.00;;;25.10;1.00;;;;;;5067350;28;20450;-58
2022/07/20 00:18:50;;;;;;;5.13;4.63;;;25.10;1.00;;;;;;5051929;28;20472;-59
2022/07/20 00:21:16;;;;;;;8.20;4.87;;;25.10;1.00;;;;;;5049930;28;20450;-58
2022/07/20 00:23:41;;;;;;;5.43;4.93;;;25.10;1.00;;;;;;5052411;28;20455;-59
2022/07/20 00:28:33;;;;;;;6.50;4.67;;;24.90;1.00;;;;;;5051566;28;20181;-58
2022/07/20 00:30:58;;;;;;;6.80;4.80;;;24.80;1.00;;;;;;5049535;28;20216;-60
2022/07/20 00:33:24;;;;;;;4.77;4.23;;;24.80;1.00;;;;;;5050189;28;20184;-59
2022/07/20 00:35:49;;;;;;;6.07;4.40;;;24.80;1.00;;;;;;5049260;28;20685;-58
2022/07/20 00:38:15;;;;;;;5.50;5.00;;;24.70;1.00;;;;;;5050204;28;20295;-58
2022/07/20 00:40:41;;;;;;;4.90;4.50;;;24.70;1.00;;;;;;5049520;28;20195;-59
2022/07/20 00:43:07;;;;;;;9.20;4.67;;;24.60;1.00;;;;;;5050993;28;20234;-58
2022/07/20 00:45:33;;;;;;;5.73;4.37;;;24.60;1.00;;;;;;5051771;28;20184;-57
2022/07/20 00:47:58;;;;;;;5.20;4.70;;;24.50;1.00;;;;;;5047027;28;20511;-58
2022/07/20 00:50:24;;;;;;;6.90;4.70;;;24.40;1.00;;;;;;5052454;28;20293;-59
2022/07/20 00:52:50;;;;;;;6.53;4.27;;;24.30;1.00;;;;;;5051921;28;20184;-61
2022/07/20 00:55:16;;;;;;;5.17;4.67;;;24.20;1.00;;;;;;5049568;28;20684;-59
2022/07/20 00:57:42;;;;;;;5.67;4.30;;;24.20;1.00;;;;;;5049960;28;20243;-59
2022/07/20 01:00:09;;;;;;;9.43;5.03;;;24.10;1.00;;;;;;5049295;28;20470;-59
2022/07/20 01:02:35;;;;;;;8.10;4.90;;;24.10;1.00;;;;;;5081900;28;20287;-59
2022/07/20 01:05:01;;;;;;;5.90;5.17;;;24.00;1.00;;;;;;5050794;28;20453;-58
2022/07/20 01:07:27;;;;;;;5.57;4.63;;;23.90;1.00;;;;;;5050325;28;20434;-59
2022/07/20 01:09:53;;;;;;;4.77;4.30;;;24.00;1.00;;;;;;5050321;28;20187;-58
2022/07/20 01:12:19;;;;;;;5.00;4.60;;;23.90;1.00;;;;;;5050801;28;20184;-59
2022/07/20 01:14:44;;;;;;;6.80;4.70;;;23.90;1.00;;;;;;5048410;28;20544;-59
2022/07/20 01:17:11;;;;;;;5.00;4.60;;;23.90;1.00;;;;;;5049072;28;20241;-59
2022/07/20 01:19:37;;;;;;;7.23;5.17;;;23.80;1.00;;;;;;5048305;28;20211;-59
2022/07/20 01:22:03;;;;;;;6.30;5.00;;;23.90;1.00;;;;;;5049824;28;20482;-60
2022/07/20 01:24:29;;;;;;;6.00;4.57;;;23.90;1.00;;;;;;5048554;28;20195;-59
2022/07/20 01:26:55;;;;;;;5.23;4.70;;;23.80;1.00;;;;;;5052619;28;20485;-58
2022/07/20 01:29:20;;;;;;;4.77;4.30;;;23.80;1.00;;;;;;5049190;28;20450;-57
2022/07/20 01:31:46;;;;;;;6.77;5.20;;;23.80;1.00;;;;;;5047135;28;20459;-59
2022/07/20 01:34:12;;;;;;;5.27;4.87;;;23.80;1.00;;;;;;5049145;28;20189;-59
2022/07/20 01:36:38;;;;;;;5.40;4.07;;;23.70;1.00;;;;;;5047257;28;20439;-58
2022/07/20 01:39:04;;;;;;;8.07;4.63;;;23.70;1.00;;;;;;5048712;28;20596;-59
2022/07/20 01:41:30;;;;;;;5.23;4.47;;;23.60;1.00;;;;;;5048172;28;20712;-59
2022/07/20 01:43:56;;;;;;;5.80;4.80;;;23.60;1.00;;;;;;5050739;28;20442;-59
2022/07/20 01:46:21;;;;;;;5.97;4.40;;;23.60;1.00;;;;;;5049900;28;20192;-59
2022/07/20 01:48:47;;;;;;;8.13;4.80;;;23.50;1.00;;;;;;5050087;28;20196;-59
2022/07/20 01:51:13;;;;;;;6.77;4.80;;;23.50;1.00;;;;;;5048277;28;20179;-57
2022/07/20 01:53:38;;;;;;;6.60;4.97;;;23.50;1.00;;;;;;5045023;28;20188;-59
2022/07/20 01:58:33;;;;;;;5.57;4.83;;;23.40;1.00;;;;;;5049932;28;20216;-58
2022/07/20 02:00:58;;;;;;;5.27;4.77;;;23.40;1.00;;;;;;5048618;28;20453;-58
2022/07/20 02:03:24;;;;;;;5.93;4.33;;;23.30;1.00;;;;;;5045726;28;20286;-59
2022/07/20 02:05:49;;;;;;;7.87;5.30;;;23.20;1.00;;;;;;5050812;28;20184;-60
2022/07/20 02:08:15;;;;;;;6.77;5.30;;;23.20;1.00;;;;;;5047082;28;20218;-59
2022/07/20 02:10:40;;;;;;;4.90;4.33;;;23.20;1.00;;;;;;5048276;28;20203;-59
2022/07/20 02:13:07;;;;;;;4.60;4.20;;;23.10;1.00;;;;;;5048806;28;20180;-59
2022/07/20 02:18:16;;;;;;;5.87;4.73;;;23.10;1.00;;;;;;5048982;28;20512;-58
2022/07/20 02:20:42;;;;;;;4.70;4.30;;;23.10;1.00;;;;;;5047243;28;20442;-58
2022/07/20 02:23:09;;;;;;;5.77;4.90;;;23.20;1.00;;;;;;5049572;28;20198;-59
2022/07/20 02:25:36;;;;;;;6.80;5.27;;;23.20;1.00;;;;;;5044852;28;20653;-58
2022/07/20 02:28:06;;;;;;;4.70;4.30;;;23.00;1.00;;;;;;5049748;28;20498;-58
2022/07/20 02:30:31;;;;;;;5.63;4.87;;;23.00;1.00;;;;;;5047597;28;20446;-58
2022/07/20 02:32:57;;;;;;;5.30;4.80;;;23.00;1.00;;;;;;5049848;28;20588;-60
2022/07/20 02:35:23;;;;;;;10.43;5.70;;;22.90;1.00;;;;;;5047016;28;20263;-59
2022/07/20 02:37:48;;;;;;;8.13;5.17;;;22.90;1.00;;;;;;5048562;28;20805;-59
2022/07/20 02:40:14;;;;;;;5.93;5.10;;;22.90;1.00;;;;;;5048494;28;20187;-59
2022/07/20 02:42:39;;;;;;;7.47;5.67;;;23.00;1.00;;;;;;5049744;28;21122;-59
2022/07/20 02:45:06;;;;;;;7.17;5.63;;;23.00;1.00;;;;;;5047757;28;20227;-57
2022/07/20 02:47:31;;;;;;;5.60;5.10;;;22.90;1.00;;;;;;5047277;28;20185;-58
2022/07/20 02:49:57;;;;;;;5.60;4.97;;;22.80;1.00;;;;;;5046424;28;20454;-59
2022/07/20 02:52:22;;;;;;;4.80;4.43;;;22.70;1.00;;;;;;5048101;28;20204;-58
2022/07/20 02:54:48;;;;;;;5.53;5.03;;;22.70;1.00;;;;;;5045947;28;20180;-56
2022/07/20 02:57:13;;;;;;;5.10;4.67;;;22.70;1.00;;;;;;5046752;28;20271;-59
2022/07/20 02:59:39;;;;;;;5.93;5.10;;;22.80;1.00;;;;;;5048327;28;20208;-59
2022/07/20 03:02:05;;;;;;;5.23;4.73;;;22.70;1.00;;;;;;5047347;28;20242;-59
2022/07/20 03:04:30;;;;;;;6.17;5.57;;;22.70;1.00;;;;;;5049658;28;20558;-60
2022/07/20 03:06:56;;;;;;;8.47;5.33;;;22.70;1.00;;;;;;5045281;28;20270;-59
2022/07/20 03:09:21;;;;;;;5.83;5.23;;;22.70;1.00;;;;;;5049412;28;20586;-59
2022/07/20 03:11:47;;;;;;;5.80;4.97;;;22.70;1.00;;;;;;5048215;28;20653;-58
2022/07/20 03:14:13;;;;;;;6.07;5.07;;;22.70;1.00;;;;;;5046338;28;20539;-59
2022/07/20 03:16:41;;;;;;;5.70;5.20;;;22.70;1.00;;;;;;5048974;28;20237;-59
2022/07/20 03:19:06;;;;;;;5.60;4.97;;;22.70;1.00;;;;;;5043507;28;20257;-59
2022/07/20 03:21:32;;;;;;;5.90;5.30;;;22.70;1.00;;;;;;5044622;28;20964;-59
2022/07/20 03:23:58;;;;;;;6.37;5.07;;;22.70;1.00;;;;;;5048424;28;20262;-59
2022/07/20 03:26:23;;;;;;;6.17;5.20;;;22.70;1.00;;;;;;5046485;28;20203;-59
2022/07/20 03:28:49;;;;;;;10.00;5.67;;;22.60;1.00;;;;;;5046050;28;20655;-58
2022/07/20 03:31:14;;;;;;;5.40;4.83;;;22.60;1.00;;;;;;5047128;28;20314;-58
2022/07/20 03:33:40;;;;;;;8.90;5.50;;;22.60;1.00;;;;;;5046427;28;20634;-59
2022/07/20 03:36:11;;;;;;;5.80;5.20;;;22.60;1.00;;;;;;5048730;28;20211;-59
2022/07/20 03:38:37;;;;;;;5.43;4.90;;;22.60;1.00;;;;;;5043805;28;20668;-59
2022/07/20 03:41:02;;;;;;;5.60;5.10;;;22.60;1.00;;;;;;5049121;28;20478;-60
2022/07/20 03:43:28;;;;;;;6.13;5.30;;;22.60;1.00;;;;;;5043726;28;20198;-59
2022/07/20 03:45:54;;;;;;;6.97;5.10;;;22.60;1.00;;;;;;5042819;28;20268;-59
2022/07/20 03:48:19;;;;;;;5.70;5.13;;;22.70;1.00;;;;;;5044846;28;20622;-58
2022/07/20 03:50:46;;;;;;;5.90;4.70;;;22.70;1.00;;;;;;5048012;28;20203;-59
2022/07/20 03:53:12;;;;;;;6.30;5.10;;;22.70;1.00;;;;;;5045994;28;20230;-60
2022/07/20 03:55:39;;;;;;;9.90;5.47;;;22.60;1.00;;;;;;5047617;28;20461;-59
2022/07/20 03:58:04;;;;;;;6.13;5.53;;;22.60;1.00;;;;;;5043402;28;20498;-59
2022/07/20 04:00:30;;;;;;;7.27;5.37;;;22.70;1.00;;;;;;5048498;28;20450;-59
2022/07/20 04:02:56;;;;;;;6.23;5.73;;;22.60;1.00;;;;;;5044487;28;20208;-59
2022/07/20 04:05:22;;;;;;;6.50;5.23;;;22.70;1.00;;;;;;5042043;28;20543;-59
2022/07/20 04:07:48;;;;;;;7.50;6.00;;;22.70;1.00;;;;;;5044987;28;20649;-59
2022/07/20 04:10:13;;;;;;;5.60;5.03;;;22.70;1.00;;;;;;5049104;28;20237;-58
2022/07/20 04:12:39;;;;;;;7.40;5.13;;;22.70;1.00;;;;;;5050964;28;20278;-56
2022/07/20 04:15:05;;;;;;;6.40;5.60;;;22.80;1.00;;;;;;5051677;28;20195;-57
2022/07/20 04:17:30;;;;;;;6.13;5.50;;;22.80;1.00;;;;;;5052216;28;20200;-59
2022/07/20 04:19:56;;;;;;;6.30;5.70;;;22.80;1.00;;;;;;5050781;28;20501;-60
2022/07/20 04:22:22;;;;;;;5.60;5.10;;;22.80;1.00;;;;;;5051662;28;20200;-59
2022/07/20 04:24:47;;;;;;;7.37;5.30;;;22.90;1.00;;;;;;5050335;28;20649;-59
2022/07/20 04:27:13;;;;;;;6.17;5.60;;;23.00;1.00;;;;;;5050900;28;20192;-59
2022/07/20 04:29:39;;;;;;;5.50;5.00;;;23.10;1.00;;;;;;5051246;28;20188;-59
2022/07/20 04:32:05;;;;;;;7.57;5.80;;;23.10;1.00;;;;;;5049504;28;20801;-60
2022/07/20 04:34:31;;;;;;;11.00;5.50;;;23.20;1.00;;;;;;5051771;28;20273;-58
2022/07/20 04:36:56;;;;;;;8.20;6.20;;;23.20;1.00;;;;;;5051277;28;20450;-59
2022/07/20 04:39:22;;;;;;;6.40;5.70;;;23.20;1.00;;;;;;5051447;28;20216;-58
2022/07/20 04:41:48;;;;;;;5.90;5.37;;;23.10;1.00;;;;;;5050925;28;20184;-59
2022/07/20 04:44:14;;;;;;;8.17;5.83;;;23.20;1.00;;;;;;5050187;28;20442;-59
2022/07/20 04:46:39;;;;;;;8.50;6.00;;;23.20;1.00;;;;;;5051499;28;20199;-59
2022/07/20 04:49:07;;;;;;;6.20;5.60;;;23.40;1.00;;;;;;5049672;28;20199;-59
2022/07/20 04:51:33;;;;;;;8.63;6.00;;;23.30;1.00;;;;;;5050476;28;20238;-58
2022/07/20 04:53:58;;;;;;;7.40;5.90;;;23.40;1.00;;;;;;5049380;28;20446;-56
2022/07/20 04:56:24;;;;;;;6.63;5.47;;;23.40;1.00;;;;;;5050256;28;20457;-58
2022/07/20 04:58:52;;;;;;;8.43;5.70;;;23.40;1.00;;;;;;5051830;28;20596;-58
2022/07/20 05:01:19;;;;;;;6.63;4.97;;;23.40;1.00;;;;;;5062659;28;20588;-57
2022/07/20 05:03:45;;;;;;;6.93;5.03;;;23.50;1.00;;;;;;5053041;28;20796;-57
2022/07/20 05:06:11;;;;;;;7.90;5.70;;;23.50;1.00;;;;;;5050200;28;20447;-58
2022/07/20 05:08:37;;;;;;;6.47;5.90;;;23.60;1.00;;;;;;5047627;28;20253;-56
2022/07/20 05:11:02;;;;;;;5.93;5.33;;;23.60;1.00;;;;;;5055176;28;20192;-56
2022/07/20 05:13:28;;;;;;;6.60;6.00;;;23.70;1.00;;;;;;5051144;28;20595;-57
2022/07/20 05:15:53;;;;;;;6.37;5.43;;;23.70;1.00;;;;;;5049823;28;20669;-58
2022/07/20 05:18:19;;;;;;;7.30;5.13;;;23.70;1.00;;;;;;5049646;28;20204;-58
2022/07/20 05:20:45;;;;;;;8.60;5.30;;;23.80;1.00;;;;;;5051961;28;20271;-56
2022/07/20 05:23:10;;;;;;;7.87;5.70;;;23.90;1.00;;;;;;5049805;28;20275;-57
2022/07/20 05:25:39;;;;;;;8.77;5.37;;;23.90;1.00;;;;;;5048620;28;20700;-57
2022/07/20 05:28:06;;;;;;;7.87;5.10;;;24.00;1.00;;;;;;5048616;28;20196;-56
2022/07/20 05:30:34;;;;;;;6.93;5.23;;;24.10;1.00;;;;;;5048351;28;20446;-58
2022/07/20 05:33:00;;;;;;;13.30;6.17;;;24.30;1.00;;;;;;5047024;28;20479;-57
2022/07/20 05:35:26;;;;;;;7.67;5.00;;;24.40;1.00;;;;;;5050362;28;20446;-57
2022/07/20 05:37:51;;;;;;;7.50;5.13;;;24.50;1.00;;;;;;5050097;28;20242;-57
2022/07/20 05:40:18;;;;;;;9.43;5.40;;;24.60;1.00;;;;;;5050110;28;21208;-57
2022/07/20 05:42:44;;;;;;;7.37;5.40;;;24.90;1.00;;;;;;5049778;28;20219;-57
2022/07/20 05:45:09;;;;;;;7.80;5.30;;;25.00;1.00;;;;;;5049385;28;20474;-57
2022/07/20 05:47:35;;;;;;;8.27;5.20;;;25.10;1.00;;;;;;5050695;28;20210;-56
2022/07/20 05:50:01;;;;;;;14.83;5.50;;;25.30;1.00;;;;;;5049726;28;20195;-56
2022/07/20 05:52:26;;;;;;;8.57;5.40;;;25.50;1.00;;;;;;5050186;28;20184;-58
2022/07/20 05:54:52;;;;;;;14.70;5.10;;;25.60;1.00;;;;;;5049592;28;20215;-57
2022/07/20 05:57:18;;;;;;;9.37;5.30;;;25.70;1.00;;;;;;5050636;28;20594;-57
2022/07/20 05:59:44;;;;;;;10.27;5.10;;;25.80;1.00;;;;;;5049715;28;20488;-59
2022/07/20 06:02:09;;;;;;;9.67;4.90;;;25.90;1.00;;;;;;5050236;28;20641;-56
2022/07/20 06:04:37;;;;;;;5.97;5.37;;;26.10;1.00;;;;;;5048843;28;20190;-57
2022/07/20 06:07:03;;;;;;;10.00;5.60;;;26.20;1.00;;;;;;5048523;28;20488;-59
2022/07/20 06:09:29;;;;;;;8.10;5.30;;;26.40;1.00;;;;;;5050044;28;20704;-57
2022/07/20 06:11:55;;;;;;;10.30;5.30;;;26.50;1.00;;;;;;5049675;28;20473;-57
2022/07/20 06:14:20;;;;;;;5.93;4.50;;;26.70;1.00;;;;;;5050736;28;20299;-58
2022/07/20 06:16:46;;;;;;;5.43;4.57;;;26.70;1.00;;;;;;5049886;28;20234;-56
2022/07/20 06:19:12;;;;;;;4.87;4.27;;;26.90;1.00;;;;;;5049308;28;20215;-57
2022/07/20 06:21:37;;;;;;;7.37;5.13;;;27.00;1.00;;;;;;5048381;28;20204;-57
2022/07/20 06:24:03;;;;;;;6.83;4.87;;;27.10;1.00;;;;;;5048699;28;20572;-57
2022/07/20 06:26:29;;;;;;;8.77;5.40;;;27.20;1.00;;;;;;5050089;28;20203;-58
2022/07/20 06:28:55;;;;;;;8.23;5.00;;;27.30;1.00;;;;;;5056969;28;20198;-58
2022/07/20 06:31:20;;;;;;;6.73;5.10;;;27.50;1.00;;;;;;5050297;28;20231;-57
2022/07/20 06:33:46;;;;;;;7.10;4.90;;;27.60;1.00;;;;;;5047896;28;20698;-56
2022/07/20 06:36:11;;;;;;;5.53;4.80;;;27.70;1.00;;;;;;5049794;28;20548;-57
2022/07/20 06:38:37;;;;;;;6.27;4.70;;;27.80;1.00;;;;;;5048764;28;20246;-58
2022/07/20 06:41:03;;;;;;;5.33;4.83;;;27.90;1.00;;;;;;5047888;28;20330;-58
2022/07/20 06:43:28;;;;;;;8.30;5.03;;;28.00;1.00;;;;;;5049621;28;20304;-57
2022/07/20 06:45:54;;;;;;;7.63;4.70;;;28.00;1.00;;;;;;5050099;28;20187;-56
2022/07/20 06:48:19;;;;;;;4.87;4.47;;;28.10;1.00;;;;;;5048711;28;21564;-57
2022/07/20 06:50:45;;;;;;;7.07;5.00;;;28.30;1.00;;;;;;5048574;28;20204;-59
2022/07/20 06:53:11;;;;;;;6.63;4.67;;;28.40;1.00;;;;;;5049339;28;20710;-58
2022/07/20 06:55:37;;;;;;;8.60;4.83;;;28.50;1.00;;;;;;5048681;28;20442;-57
2022/07/20 06:58:03;;;;;;;8.23;4.50;;;28.80;1.00;;;;;;5048695;28;20474;-57
2022/07/20 07:00:29;;;;;;;10.03;5.00;;;;;;;;;;5048707;28;20188;-60
2022/07/20 07:02:55;;;;;;;4.73;4.30;;;28.80;1.00;;;;;;5047941;28;20183;-57
2022/07/20 07:05:21;;;;;;;6.87;4.70;;;28.90;1.00;;;;;;5048820;28;20464;-56
2022/07/20 07:07:47;;;;;;;6.17;4.47;;;29.00;1.00;;;;;;5048833;28;20198;-58
2022/07/20 07:10:12;;;;;;;5.00;4.00;;;29.10;1.00;;;;;;5048945;28;20192;-58
2022/07/20 07:12:38;;;;;;;6.00;4.00;;;29.40;1.00;;;;;;5048564;28;20192;-58
2022/07/20 07:15:04;;;;;;;5.40;4.10;;;29.60;1.00;;;;;;5048161;28;20192;-58
2022/07/20 07:17:30;;;;;;;6.77;4.40;;;29.70;1.00;;;;;;5048908;28;20304;-56
2022/07/20 07:19:58;;;;;;;5.70;4.20;;;29.70;1.00;;;;;;5049413;28;20449;-57
2022/07/20 07:22:27;;;;;;;6.73;4.00;;;29.90;1.00;;;;;;5048471;28;20490;-59
2022/07/20 07:24:53;;;;;;;13.03;5.07;;;30.10;1.00;;;;;;5049058;28;20529;-58
2022/07/20 07:27:19;;;;;;;5.83;4.00;;;30.20;1.00;;;;;;5048697;28;20435;-57
2022/07/20 07:29:45;;;;;;;4.90;4.27;;;30.40;1.00;;;;;;5048847;28;20452;-57
2022/07/20 07:32:10;;;;;;;4.50;4.10;;;30.50;1.00;;;;;;5052993;28;20739;-58
2022/07/20 07:34:36;;;;;;;5.17;4.07;;;;;;;;;;5047202;28;20731;-58
2022/07/20 07:37:02;;;;;;;5.63;4.20;;;;;;;;;;5049568;28;20184;-58
2022/07/20 07:39:28;;;;;;;4.80;3.90;;;30.90;1.00;;;;;;5052702;28;20465;-58
2022/07/20 07:41:54;;;;;;;4.10;3.80;;;31.10;1.00;;;;;;5069648;28;20422;-57
2022/07/20 07:44:19;;;;;;;6.07;4.03;;;31.20;1.00;;;;;;5050266;28;20852;-59
2022/07/20 07:46:45;;;;;;;7.90;4.00;;;31.30;1.00;;;;;;5051825;28;20645;-57
2022/07/20 07:49:11;;;;;;;6.83;4.07;;;31.50;1.00;;;;;;5052401;28;20196;-58
2022/07/20 07:51:37;;;;;;;8.70;3.70;;;31.50;1.00;;;;;;5051983;28;20287;-57
2022/07/20 07:54:03;;;;;;;5.00;3.60;;;31.70;1.00;;;;;;5052728;28;20282;-58
2022/07/20 07:56:29;;;;;;;5.17;4.40;;;31.50;1.00;;;;;;5052919;28;20453;-59
2022/07/20 07:58:54;;;;;;;5.10;3.83;;;31.40;1.00;;;;;;5052164;28;20466;-58
2022/07/20 08:01:20;;;;;;;4.00;3.50;;;31.30;1.00;;;;;;5052477;28;20188;-57
2022/07/20 08:03:46;;;;;;;6.30;4.10;;;31.20;1.00;;;;;;5051621;28;20184;-58
2022/07/20 08:06:11;;;;;;;6.17;3.93;;;31.20;1.00;;;;;;5051140;28;20184;-59
2022/07/20 08:08:37;;;;;;;6.43;3.57;;;31.40;1.00;;;;;;5051760;28;21467;-56
2022/07/20 08:11:03;;;;;;;6.17;4.47;;;31.50;1.00;;;;;;5050762;28;20325;-57
2022/07/20 08:13:44;;;;;;;4.63;3.47;;;31.70;1.00;;;;;;5052277;28;20207;-59
2022/07/20 08:16:13;;;;;;;5.67;4.30;;;31.90;1.00;;;;;;5052486;28;20446;-58
2022/07/20 08:18:39;;;;;;;4.07;3.77;;;32.00;1.00;;;;;;5051808;28;20543;-59
2022/07/20 08:21:11;;;;;;;8.20;4.20;;;32.10;1.00;;;;;;5051512;28;20449;-58
2022/07/20 08:23:36;;;;;;;4.70;4.27;;;32.20;1.00;;;;;;5051872;28;20214;-57
2022/07/20 08:26:02;;;;;;;6.23;4.70;;;32.40;1.00;;;;;;5048579;28;20533;-58
2022/07/20 08:28:27;;;;;;;7.50;4.10;;;32.50;1.00;;;;;;5052288;28;20627;-57
2022/07/20 08:30:53;;;;;;;4.93;3.80;;;32.60;1.00;;;;;;5051351;28;20661;-60
2022/07/20 08:33:19;;;;;;;7.40;4.47;;;32.50;1.00;;;;;;5050570;28;20265;-58
2022/07/20 08:35:45;;;;;;;5.53;3.60;;;32.50;1.00;;;;;;5050185;28;20685;-57
2022/07/20 08:38:11;;;;;;;6.43;4.30;;;32.70;1.00;;;;;;5060047;28;20478;-58
2022/07/20 08:40:38;;;;;;;7.53;3.63;;;32.80;1.00;;;;;;5051804;28;20196;-58
2022/07/20 08:43:04;;;;;;;5.10;3.60;;;32.90;1.00;;;;;;5050705;28;20198;-58
2022/07/20 08:45:31;;;;;;;6.70;3.23;;;33.00;1.00;;;;;;5052079;28;20442;-57
2022/07/20 08:48:00;;;;;;;5.33;3.40;;;33.10;1.00;;;;;;5050541;28;20446;-58
2022/07/20 08:50:28;;;;;;;8.80;3.97;;;33.40;1.00;;;;;;5051853;28;20481;-57
2022/07/20 08:52:55;;;;;;;5.03;3.30;;;33.70;1.00;;;;;;5051664;28;20944;-56
2022/07/20 08:55:21;;;;;;;4.77;3.00;;;33.90;1.00;;;;;;5051903;28;20480;-57
2022/07/20 08:57:47;;;;;;;4.33;3.40;;;34.00;1.00;;;;;;5050542;28;20442;-58
2022/07/20 09:00:14;;;;;;;9.73;3.60;;;34.30;1.00;;;;;;5051862;28;20259;-58
2022/07/20 09:03:01;;;;;;;6.60;3.20;;;34.20;1.00;;;;;;5051972;28;20184;-57
2022/07/20 09:05:28;;;;;;;5.77;3.17;;;34.30;1.00;;;;;;5055457;28;20458;-58
2022/07/20 09:07:55;;;;;;;3.53;3.03;;;34.30;1.00;;;;;;5051303;28;21034;-57
2022/07/20 09:10:26;;;;;;;4.77;3.47;;;34.30;1.00;;;;;;5053662;28;20439;-58
2022/07/20 09:12:52;;;;;;;3.90;3.03;;;34.30;1.00;;;;;;5058765;28;20841;-58
2022/07/20 09:15:34;;;;;;;6.07;3.07;;;34.40;1.00;;;;;;5052176;28;20510;-58
2022/07/20 09:18:14;;;;;;;5.00;2.83;;;33.70;1.00;;;;;;5051800;28;20235;-57
2022/07/20 09:20:42;;;;;;;3.20;2.83;;;34.30;1.00;;;;;;5051509;28;20483;-58
2022/07/20 09:23:20;;;;;;;5.70;3.23;;;34.30;1.00;;;;;;5059222;28;20442;-58
2022/07/20 09:25:49;;;;;;;3.53;3.10;;;34.30;1.00;;;;;;5063748;28;20943;-58
2022/07/20 09:28:14;;;;;;;3.43;2.80;;;34.40;1.00;;;;;;5049788;28;20501;-58
2022/07/20 09:30:49;;;;;;;3.03;2.73;;;34.40;1.00;;;;;;5051148;28;20852;-58
2022/07/20 09:33:22;;;;;;;9.73;4.00;;;34.50;1.00;;;;;;5051238;28;20183;-58
2022/07/20 09:35:48;;;;;;;5.87;2.83;;;34.70;1.00;;;;;;5050442;28;20492;-58
2022/07/20 09:38:13;;;;;;;5.70;2.87;;;34.80;1.00;;;;;;5050176;28;20572;-58
2022/07/20 09:40:41;;;;;;;6.20;3.07;;;35.00;1.00;;;;;;5050945;28;20395;-57
2022/07/20 09:43:07;;;;;;;3.80;2.83;;;34.90;1.00;;;;;;5049787;28;20649;-57
2022/07/20 09:45:33;;;;;;;4.17;3.30;;;35.00;1.00;;;;;;5050268;28;20439;-58
2022/07/20 09:48:11;;;;;;;2.90;2.60;;;35.10;1.00;;;;;;5050216;28;20199;-58
2022/07/20 09:50:41;;;;;;;5.20;2.70;;;35.10;1.00;;;;;;5048200;28;20469;-58
2022/07/20 09:53:08;;;;;;;7.63;3.00;;;35.10;1.00;;;;;;5049282;28;20452;-57
2022/07/20 09:55:35;;;;;;;6.80;2.83;;;35.20;1.00;;;;;;5051162;28;20444;-58
2022/07/20 09:58:02;;;;;;;4.03;2.60;;;35.40;1.00;;;;;;5050018;28;20457;-58
2022/07/20 10:00:29;;;;;;;4.60;3.07;;;35.30;1.00;;;;;;5050172;28;20522;-58
2022/07/20 10:02:57;;;;;;;10.47;3.27;;;35.20;1.00;;;;;;5049015;28;20443;-57
2022/07/20 10:05:23;;;;;;;7.20;3.07;;;35.30;1.00;;;;;;5046419;28;20446;-57
2022/07/20 10:07:49;;;;;;;3.90;2.40;;;35.40;1.00;;;;;;5051052;28;20504;-57
2022/07/20 10:10:16;;;;;;;5.47;3.03;;;35.50;1.00;;;;;;5050660;28;20786;-57
2022/07/20 10:12:41;;;;;;;3.90;3.10;;;35.80;1.00;;;;;;5050320;28;20530;-57
2022/07/20 10:15:12;;;;;;;15.00;3.20;;;36.00;1.00;;;;;;5050458;28;20521;-59
2022/07/20 10:17:40;;;;;;;3.30;2.87;;;36.00;1.00;;;;;;5048191;28;20635;-57
2022/07/20 10:20:27;;;;;;;4.70;3.13;;;36.00;1.00;;;;;;5050155;28;20983;-57
2022/07/20 10:23:14;;;;;;;5.27;3.00;;;36.20;1.00;;;;;;5048528;28;20425;-58
2022/07/20 10:25:40;;;;;;;4.90;2.73;;;36.40;1.00;;;;;;5049976;28;20431;-57
2022/07/20 10:28:26;;;;;;;6.97;2.60;;;36.40;1.00;;;;;;5050384;28;20533;-56
2022/07/20 10:30:53;;;;;;;5.90;2.60;;;36.30;1.00;;;;;;5049891;28;20485;-58
2022/07/20 10:33:21;;;;;;;4.17;2.47;;;36.30;1.00;;;;;;5047463;28;20808;-57
2022/07/20 10:35:48;;;;;;;3.47;2.70;;;36.40;1.00;;;;;;5048751;28;20474;-57
2022/07/20 10:38:21;;;;;;;3.43;2.63;;;36.30;1.00;;;;;;5046656;28;20474;-59
2022/07/20 10:41:36;;;;;;;3.70;2.90;;;36.50;1.00;;;;;;5048964;28;20452;-57
2022/07/20 10:44:20;;;;;;;7.20;2.87;;;36.20;1.00;;;;;;5048093;28;20451;-57
2022/07/20 10:46:46;;;;;;;5.37;2.73;;;36.40;1.00;;;;;;5048498;28;20484;-57
2022/07/20 10:49:12;;;;;;;5.57;3.20;;;36.30;1.00;;;;;;5049920;28;20771;-57
2022/07/20 10:51:38;;;;;;;4.33;2.80;;;36.10;1.00;;;;;;5048526;28;20501;-57
2022/07/20 10:54:31;;;;;;;6.90;3.07;;;36.20;1.00;;;;;;5048836;28;20605;-57
2022/07/20 10:57:02;;;;;;;8.93;3.00;;;36.20;1.00;;;;;;5059915;28;20194;-58
2022/07/20 10:59:27;;;;;;;5.17;4.03;;;36.30;1.00;;;;;;5062916;28;20466;-57
2022/07/20 11:01:54;;;;;;;5.67;2.83;;;36.30;1.00;;;;;;5049312;28;20484;-59
2022/07/20 11:04:21;;;;;;;4.70;3.13;;;36.20;1.00;;;;;;5049004;28;20188;-58
2022/07/20 11:06:48;;;;;;;5.77;2.97;;;36.30;1.00;;;;;;5049026;28;20457;-58
2022/07/20 11:09:13;;;;;;;5.73;3.00;;;36.20;1.00;;;;;;5048164;28;20446;-58
2022/07/20 11:11:40;;;;;;;3.00;2.50;;;36.20;1.00;;;;;;5049618;28;20944;-57
2022/07/20 11:14:08;;;;;;;4.17;3.57;;;36.30;1.00;;;;;;5047403;28;20192;-59
2022/07/20 11:16:35;;;;;;;4.20;3.10;;;36.30;1.00;;;;;;5047074;28;20512;-57
2022/07/20 11:19:02;;;;;;;9.20;3.30;;;36.50;1.00;;;;;;5048740;28;20481;-56
2022/07/20 11:21:38;;;;;;;5.07;2.87;;;36.60;1.00;;;;;;5051286;28;20843;-58
2022/07/20 11:24:25;;;;;;;4.90;3.10;;;36.80;1.00;;;;;;5050516;28;20496;-57
2022/07/20 11:26:52;;;;;;;5.77;3.40;;;36.90;1.00;;;;;;5051148;28;20844;-59
2022/07/20 11:29:18;;;;;;;3.43;2.53;;;36.90;1.00;;;;;;5053908;28;20533;-58
2022/07/20 11:31:43;;;;;;;7.20;3.10;;;37.10;1.00;;;;;;5050494;28;20553;-58
2022/07/20 11:34:13;;;;;;;4.03;2.53;;;36.90;1.00;;;;;;5053795;28;20183;-58
2022/07/20 11:36:38;;;;;;;5.47;2.93;;;36.80;1.00;;;;;;5052790;28;20184;-56
2022/07/20 11:39:07;;;;;;;8.50;3.07;;;36.70;1.00;;;;;;5052481;28;20467;-58
2022/07/20 11:41:36;;;;;;;6.50;3.50;;;36.70;1.00;;;;;;5054236;28;20184;-56
2022/07/20 11:44:04;;;;;;;5.20;2.70;;;36.50;1.00;;;;;;5054432;28;20442;-57
2022/07/20 11:46:43;;;;;;;4.30;3.00;;;36.30;1.00;;;;;;5051211;28;20447;-60
2022/07/20 11:49:13;;;;;;;4.33;2.93;;;36.30;1.00;;;;;;5051245;28;20504;-57
2022/07/20 11:51:40;;;;;;;4.63;2.60;;;36.50;1.00;;;;;;5050635;28;20447;-56
2022/07/20 11:54:06;;;;;;;2.83;2.57;;;36.70;1.00;;;;;;5054621;28;20434;-57
2022/07/20 11:56:33;;;;;;;6.57;3.03;;;37.00;1.00;;;;;;5050734;28;20545;-58
2022/07/20 11:59:01;;;;;;;4.40;3.33;;;37.10;1.00;;;;;;5051762;28;20862;-59
2022/07/20 12:01:32;;;;;;;9.00;3.20;;;37.10;1.00;;;;;;5053173;28;20427;-56
2022/07/20 12:04:01;;;;;;;6.27;2.93;;;37.10;1.00;;;;;;5052505;28;20580;-57
2022/07/20 12:06:29;;;;;;;4.93;3.10;;;36.90;1.00;;;;;;5060786;28;20429;-58
2022/07/20 12:09:00;;;;;;;3.47;2.70;;;36.80;1.00;;;;;;5051699;28;20975;-58
2022/07/20 12:11:26;;;;;;;4.67;2.77;;;37.20;1.00;;;;;;5051552;28;20442;-60
2022/07/20 12:13:52;;;;;;;2.83;2.63;;;37.30;1.00;;;;;;5052265;28;20461;-57
2022/07/20 12:16:18;;;;;;;6.63;2.90;;;37.20;1.00;;;;;;5050515;28;20194;-56
2022/07/20 12:18:46;;;;;;;8.93;3.27;;;37.20;1.00;;;;;;5050806;28;20212;-57
2022/07/20 12:21:15;;;;;;;5.43;2.63;;;37.10;1.00;;;;;;5050865;28;20489;-57
2022/07/20 12:23:43;;;;;;;4.03;2.83;;;37.00;1.00;;;;;;5049481;28;20528;-57
2022/07/20 12:26:30;;;;;;;3.50;2.80;;;37.10;1.00;;;;;;5051767;28;20435;-59
2022/07/20 12:29:17;;;;;;;3.60;3.00;;;37.10;1.00;;;;;;5052699;28;20487;-57
2022/07/20 12:31:44;;;;;;;4.27;3.40;;;37.10;1.00;;;;;;5048212;28;20974;-59
2022/07/20 12:34:12;;;;;;;6.33;3.33;;;37.30;1.00;;;;;;5049270;28;20446;-57
2022/07/20 12:36:49;;;;;;;5.47;2.83;;;37.30;1.00;;;;;;5052120;28;20814;-57
2022/07/20 12:39:39;;;;;;;4.07;3.43;;;37.20;1.00;;;;;;5052306;28;20788;-58
2022/07/20 12:42:26;;;;;;;3.37;2.60;;;37.40;1.00;;;;;;5052167;28;21004;-58
2022/07/20 12:45:03;;;;;;;6.00;3.27;;;37.40;1.00;;;;;;5049551;28;20438;-57
2022/07/20 12:47:30;;;;;;;6.37;3.10;;;37.30;1.00;;;;;;5051142;28;20445;-57
2022/07/20 12:49:55;;;;;;;19.00;4.83;;;37.30;1.00;;;;;;5052262;28;20484;-59
2022/07/20 12:52:21;;;;;;;3.90;2.70;;;37.30;1.00;;;;;;5052242;28;20410;-58
2022/07/20 12:54:47;;;;;;;5.47;3.40;;;37.20;1.00;;;;;;5052199;28;20202;-57
2022/07/20 12:57:17;;;;;;;7.03;3.87;;;37.20;1.00;;;;;;5051939;28;20184;-58
2022/07/20 12:59:43;;;;;;;4.60;2.73;;;37.30;1.00;;;;;;5051927;28;20299;-58
2022/07/20 13:02:09;;;;;;;4.97;2.80;;;37.50;1.00;;;;;;5051717;28;20519;-58
2022/07/20 13:04:34;;;;;;;5.57;2.53;;;37.40;1.00;;;;;;5052327;28;20806;-57
2022/07/20 13:07:00;;;;;;;3.83;2.73;;;37.50;1.00;;;;;;5052229;28;20177;-58
2022/07/20 13:09:26;;;;;;;4.37;3.03;;;37.30;1.00;;;;;;5052154;28;20180;-57